Loisir ou Compétition : Rejoignez un Club de la Fédération

Résultats

COUPE D'ARGENT U14 TROPHEE BANQUE POPULAIRE AUVERGNE RHONE ALPES

LES MENUIRES

SG Hommes

Jury de Compétition

Délégué Technique :
MEYER ELISE (MV)
Arbitre :
BORNAND NICOLAS (SA)
Assistant :
 
Dir. Epreuve :
SEVESSAND CHRISTOPHE (SA)

Caractéristiques de la Piste

Piste :
STADE DE SLALOM VARIANTE
Départ :
2225
Arrivée :
1860
Dénivelé :
365
Homologation :
2916/04/12

Manche 1

Nombre de Portes :
37
Heure de Départ :
10h15
Traceur :
ROUX VOLLON GREGORY (SA)
Ouvreurs A :
RINGUEDE ROBIN (SA)
Ouvreurs B :
ROCARD ALBERT (SA)
Ouvreurs C :
BRIDGES TIERNAN (SA)
Ouvreurs D :
 
Ouvreurs E :
 
Temps :
beau
Neige :
compact

Manche 2

Nombre de Portes :
 
Heure de Départ :
 
Traceur :
 
Ouvreurs A :
 
Ouvreurs B :
 
Ouvreurs C :
 
Ouvreurs D :
 
Ouvreurs E :
 
Température Départ :
-4
Température Arrivée :
-2

Pénalité Appliquée :
117.6600

Catégorie :
U14
Clt Dos Clt/Cat Code An Nom Prénom Com Club Tps M1 Tps Tot Pts
Classés
1 15 1/U14 FFS2656302 2004 CARETTI MATTEO SA ALBERTVILLE 1:04.06 1:04.06 117.66
2 13 2/U14 FFS2676287 2004 DUFFAUD PACO PE PEYRAGUDES 1:05.09 1:05.09 135.02
3 53 3/U14 FFS2661392 2004 RENAUT ENZO SA SC MERIBEL 1:05.52 1:05.52 142.27
4 41 4/U14 FFS2661964 2004 SKABAR JONAS SA SC MERIBEL 1:05.54 1:05.54 142.61
5 59 5/U14 FFS2658828 2005 NORAZ MATHIS SA SC VALMEINIE 1:05.55 1:05.55 142.78
6 19 6/U14 FFS2661129 2004 VUKAJLOVIC WESLEY ANDINO SA SC LES ARCS 1:05.61 1:05.61 143.79
7 21 7/U14 FFS2657055 2004 BOIS BONNEVIE ANTOINE SA VAL D'ISERE 1:06.05 1:06.05 151.21
8 54 8/U14 FFS2657054 2004 BERTHET AUGUSTIN SA VAL D'ISERE 1:06.15 1:06.15 152.90
9 60 9/U14 FFS2657126 2004 JEAUME RAPHAEL SA VAL D'ISERE 1:06.27 1:06.27 154.92
10 52 10/U14 FFS2667093 2005 HEUDE ARTHUR SA CO VAL THO 1:06.47 1:06.47 158.29
11 47 11/U14 FFS2661905 2005 VITALE FLAVIO SA CS TIGNES 1:06.62 1:06.62 160.82
12 100 12/U14 FFS2662059 2005 DAMEVIN PIERRE ANTOINE SA CS VAL CENIS 1:06.65 1:06.65 161.33
13 37 13/U14 FFS2650934 2004 CHARRIERE REMI SA STE FOY TSE 1:06.93 1:06.93 166.05
14 11 14/U14 FFS2670410 2005 JANOT ETHAN SA CS LA PLAGNE 1:07.13 1:07.13 169.42
15 43 15/U14 FFS2664268 2004 DELECLUSE ROMAIN SA CS LA PLAGNE 1:07.16 1:07.16 169.92
16 40 16/U14 FFS2657162 2004 TETU MILO SA STE FOY TSE 1:07.27 1:07.27 171.78
17 28 17/U14 FFS2661251 2004 GARNIER KILLIAN SA CS VAL CENIS 1:07.33 1:07.33 172.79
18 1 18/U14 FFS2666493 2005 GORRAND LEOPOLD SA SC MERIBEL 1:07.36 1:07.36 173.30
19 20 19/U14 FFS2660199 2004 PAILLAS VICTOR SA SC MERIBEL 1:07.45 1:07.45 174.81
20 9 20/U14 FFS2661065 2004 BERTHIER TOM SA CS SAISIES 1:07.61 1:07.61 177.51
21 71 21/U14 FFS2656791 2004 UGINET NICOLAS SA SC ARECHES 1:07.67 1:07.67 178.52
22 42 22/U14 FFS2661032 2005 CHARPIN CLEMENT SA COURCHEVEL 1:07.74 1:07.74 179.70
23 90 23/U14 FFS2659070 2004 TURNES NOAH SA SC VALMEINIE 1:07.79 1:07.79 180.54
24 24 24/U14 FFS2653348 2004 DUPONT ROC SIMON SA SC FLUMET 1:07.82 1:07.82 181.05
25 51 25/U14 FFS2656119 2004 ZANGERL LORENZO SA SC CHAMPAGNY 1:07.84 1:07.84 181.39
26 22 26/U14 FFS2663294 2004 VAN VLOTEN ROBERT SA SC LA TANIA 1:07.86 1:07.86 181.72
27 57 27/U14 FFS2662151 2004 BOUCHAGE EMILIEN SA SC ARECHES 1:08.21 1:08.21 187.63
28 8 28/U14 FFS2662290 2005 BARNOIN LEO SA CO VAL THO 1:08.22 1:08.22 187.79
29 26 29/U14 FFS2668117 2005 CASSOULET JULES SA CO VAL THO 1:08.23 1:08.23 187.96
30 80 30/U14 FFS2662933 2004 PROUST HUGO SA ST FRANCOIS 1:08.24 1:08.24 188.13
31 67 31/U14 FFS2662142 2005 AURARD LEON SA CO VAL THO 1:08.30 1:08.30 189.14
32 36 32/U14 FFS2660821 2005 NORMAND MALO SA COURCHEVEL 1:08.32 1:08.32 189.48
33 99 33/U14 FFS2666743 2005 BERTINO FLORIAN SA CS KARELLIS 1:08.33 1:08.33 189.65
34 33 34/U14 FFS2661891 2004 MOREAU KELIAN SA SC CHAMBERY 1:08.34 1:08.34 189.82
34 74 34/U14 FFS2659960 2004 SALLES ARTHUR SA SC MONTALBER 1:08.34 1:08.34 189.82
36 50 36/U14 FFS2668536 2005 MONGELLAZ THEO SA CS KARELLIS 1:08.36 1:08.36 190.15
37 92 37/U14 FFS2663390 2004 CHAUVIN TIMOTHEE SA CS TOUSSUIRE 1:08.47 1:08.47 192.01
38 66 38/U14 FFS2660880 2004 GATARD SYLVAIN SA CS ALBIEZ 1:08.52 1:08.52 192.85
39 12 39/U14 FFS2656999 2004 LEFORESTIER MARIN SA SC ARECHES 1:08.56 1:08.56 193.53
40 76 40/U14 FFS2661230 2005 WOODBRIDGE CHARLIE SA COURCHEVEL 1:08.63 1:08.63 194.71
41 63 41/U14 FFS2657225 2004 CAMETTI BORA SA VAL D'ISERE 1:08.64 1:08.64 194.88
42 64 42/U14 FFS2663292 2005 SPENCE JAKE SA SC LA TANIA 1:08.74 1:08.74 196.56
43 87 43/U14 FFS2662291 2005 DAUMET HUGO SA CO VAL THO 1:08.83 1:08.83 198.08
44 58 44/U14 FFS2655881 2004 HEBERT EDGAR SA SC CHAMBERY 1:08.86 1:08.86 198.58
45 16 45/U14 FFS2668963 2005 ASTIER THIBAULT SA SC MONTALBER 1:08.91 1:08.91 199.43
46 81 46/U14 FFS2658244 2004 DUC JACQUET GASPARD SA SC ARECHES 1:08.95 1:08.95 200.10
47 31 47/U14 FFS2661982 2005 QUARTIER JULES SA VAL D'ISERE 1:08.99 1:08.99 200.78
48 18 48/U14 FFS2657097 2004 CHEVRON GUNIE LOUIS SA VAL D'ISERE 1:09.01 1:09.01 201.11
49 46 49/U14 FFS2662072 2005 OTTOBON NILS SA STE FOY TSE 1:09.02 1:09.02 201.28
50 4 50/U14 FFS2657406 2005 ECHARDOUR NOLAN SA SC ROCHETTE 1:09.09 1:09.09 202.46
51 7 51/U14 FFS2661553 2005 CAMPANELLI ULYSSE SA SC ROCHETTE 1:09.14 1:09.14 203.30
52 27 52/U14 FFS2657837 2004 ROUSSEAU FERNAND SA CS LA NORMA 1:09.15 1:09.15 203.47
53 94 53/U14 FFS2662935 2005 SAMBUIS ARTHUR SA ST FRANCOIS 1:09.16 1:09.16 203.64
54 44 54/U14 FFS2662066 2005 RIBAUD CHAUDAN VICTOR SA STE FOY TSE 1:09.25 1:09.25 205.16
54 79 54/U14 FFS2657161 2004 BIENASSIS COLIN SA STE FOY TSE 1:09.25 1:09.25 205.16
56 56 56/U14 FFS2656451 2004 PARK OSCAR SA COURCHEVEL 1:09.26 1:09.26 205.33
57 97 57/U14 FFS2656917 2004 BARON JULES SA CS VAL CENIS 1:09.41 1:09.41 207.86
58 78 58/U14 FFS2661139 2004 JEAN ZAKARY SA SC LES ARCS 1:09.42 1:09.42 208.03
59 70 59/U14 FFS2656337 2004 CUVEX COMBAZ FELIX SA CS SAISIES 1:09.43 1:09.43 208.19
60 84 60/U14 FFS2661143 2004 BOUCHENOT MARC SA SC LES ARCS 1:09.46 1:09.46 208.70
61 98 61/U14 FFS2655841 2004 BLANC NOLAN SA COURCHEVEL 1:09.57 1:09.57 210.55
62 85 62/U14 FFS2672368 2005 CHEVAUCHER GABY SA CS LA NORMA 1:09.68 1:09.68 212.41
63 62 63/U14 FFS2667770 2005 JOUENNE MAXANDRE SA SC MENUIRES 1:09.71 1:09.71 212.91
64 38 64/U14 FFS2658144 2004 BEJUIS TIMOTHE SA CS SAISIES 1:10.01 1:10.01 217.97
65 68 65/U14 FFS2662289 2005 NICOL JOHANN SA CO VAL THO 1:10.02 1:10.02 218.14
66 49 66/U14 FFS2656181 2004 BLANCHET KERRIAN SA SC FLUMET 1:10.09 1:10.09 219.32
67 73 67/U14 FFS2662267 2005 ARNAUD MATHIS SA CO VAL THO 1:10.11 1:10.11 219.66
68 35 68/U14 FFS2660735 2005 DECUGIS LOUIS SA SC CHAMPAGNY 1:10.19 1:10.19 221.01
68 45 68/U14 FFS2662138 2005 VARCIN ENZO SA VAL D'ISERE 1:10.19 1:10.19 221.01
70 34 70/U14 FFS2666923 2005 JAY MARIN SA SC MENUIRES 1:10.51 1:10.51 226.40
71 3 71/U14 FFS2665609 2005 ARLAUD NOLAN SA SC CORBIER 1:10.55 1:10.55 227.08
72 23 72/U14 FFS2655618 2004 LAMI LEO SA SC ROCHETTE 1:10.76 1:10.76 230.62
73 101 73/U14 FFS2668903 2005 MORAND RUDY SA SC GIETTAZ 1:10.91 1:10.91 233.15
74 61 74/U14 FFS2697363 2005 LEBEDFF YVAN SA SC BONNEVAL 1:11.11 1:11.11 236.52
75 91 75/U14 FFS2664415 2004 QUILLIET TIMO SA SC CHAMBERY 1:11.30 1:11.30 239.72
76 95 76/U14 FFS2662068 2005 MAZET ALEXANDRE SA STE FOY TSE 1:11.44 1:11.44 242.08
77 65 77/U14 FFS2656593 2004 DUPUY RAPHAEL SA VILLAROGER 1:11.47 1:11.47 242.59
78 77 78/U14 FFS2657552 2004 VOUTIER THEO SA ST SORLIN 1:11.89 1:11.89 249.67
79 10 79/U14 FFS2663874 2005 OUVRIER BUFFET LEO SA SC FLUMET 1:12.15 1:12.15 254.05
80 30 80/U14 FFS2676923 2005 FRISON ROCHE PAUL SA SC ARECHES 1:12.27 1:12.27 256.07
81 29 81/U14 FFS2672734 2005 DELGADO CLEMENT SA SC AILLONS 1:12.79 1:12.79 264.84
82 6 82/U14 FFS2657915 2004 FAIVRE ELIOT SA SC AILLONS 1:12.85 1:12.85 265.85
83 48 83/U14 FFS2668505 2005 DUC GONINAZ LOUIS SA ALBERTVILLE 1:12.87 1:12.87 266.19
84 69 84/U14 FFS2662828 2004 CASCI NOE SA VAL D'ISERE 1:14.18 1:14.18 288.28
85 88 85/U14 FFS2668509 2004 TESTE PACO SA CS TOUSSUIRE 1:14.27 1:14.27 289.79
86 75 86/U14 FFS2658176 2004 VINCENDET LOUIS SA CS LA NORMA 1:15.36 1:15.36 308.17
Abandons
5 FFS2657165 2004 USANNAZ TIMEO SA STE FOY TSE
14 FFS2662432 2005 HOUHOU DUNAND TOMMY SA COURCHEVEL
17 FFS2661429 2004 GROS DELEGLISE GUERLAIN SA SC CORBIER
32 FFS2657125 2004 HACQUARD DYLAN SA VAL D'ISERE
39 FFS2671529 2005 FORTAIN SLOAN SA TCAM-FECLAZ
72 FFS2662378 2005 CLAVEL TEO SA CS VALMOREL
83 FFS2659044 2004 GARDIEN ROBIN SA SC CHAMBERY
86 FFS2657442 2004 CHEDAL ANGLAY AXEL SA COURCHEVEL
89 FFS2665245 2005 ROLLAND DIEGO SA SC PRALOGNAN
96 FFS2663451 2005 EL AMIRI REMI SA CS SAISIES
Non partants
2 FFS2663576 2005 CARRICK SMITH LUCA SA VILLAROGER
25 FFS2660879 2004 CANNONI DIEGO SA CS ALBIEZ
55 FFS2668815 2005 GAUCHER GUERLAIN SA CS LA PLAGNE
82 FFS2678348 2005 IMBERT LOUIS SA SC LES ARCS
93 FFS2681910 2005 DELSAUX FRANCOIS SA TCAM-FECLAZ